Time;durP1;ratioP1;P1;durP2;ratioP2;P2;SDS_P1;SDS_P2;PMS_P1;PMS_P2;Temp;Humidity;BMP_temperature;BMP_pressure;BME280_temperature;BME280_humidity;BME280_pressure;Samples;Min_cycle;Max_cycle;Signal;HPM_P1;HPM_P2
2021/12/17 00:05:06;;;;;;;31.20;15.88;;;;;;;5.79;95.23;102718.38;5000440;28;20038;-77
2021/12/17 00:07:35;;;;;;;28.85;14.25;;;;;;;5.87;95.26;102721.38;5001140;28;20040;-77
2021/12/17 00:10:07;;;;;;;28.65;14.57;;;;;;;5.90;95.50;102716.28;5005438;28;20567;-77
2021/12/17 00:12:33;;;;;;;;;;;;;;;5.88;95.02;102715.28;5002660;28;20030;-77
2021/12/17 00:14:59;;;;;;;26.17;14.50;;;;;;;5.91;94.73;102712.81;5005266;28;20000;-77
2021/12/17 00:17:30;;;;;;;25.15;14.00;;;;;;;5.86;94.69;102706.44;5004134;28;20042;-77
2021/12/17 00:50:02;;;;;;;30.83;14.65;;;;;;;5.78;95.26;102715.66;5002338;28;20042;-77
2021/12/17 00:52:34;;;;;;;34.40;16.40;;;;;;;5.70;95.02;102716.19;5003367;28;20114;-77
2021/12/17 00:55:00;;;;;;;34.25;16.48;;;;;;;5.71;95.07;102707.53;5002766;28;20057;-77
2021/12/17 00:57:30;;;;;;;31.10;16.85;;;;;;;5.68;95.59;102707.34;5003426;28;20034;-77
2021/12/17 00:59:56;;;;;;;31.80;16.00;;;;;;;5.73;95.31;102689.25;5008700;28;20105;-77
2021/12/17 01:02:32;;;;;;;33.13;17.35;;;;;;;5.66;94.89;102697.66;5001945;28;20117;-77
2021/12/17 01:05:03;;;;;;;37.72;18.52;;;;;;;5.69;95.02;102687.31;5003588;28;20173;-78
2021/12/17 01:07:32;;;;;;;33.78;15.93;;;;;;;5.68;94.35;102703.84;5000647;28;20166;-77
2021/12/17 01:10:03;;;;;;;34.08;15.25;;;;;;;5.66;94.83;102709.03;5000964;28;20031;-77
2021/12/17 01:12:33;;;;;;;35.33;16.20;;;;;;;5.57;94.37;102710.28;5009009;28;20044;-78
2021/12/17 01:15:12;;;;;;;33.95;15.50;;;;;;;5.65;94.36;102709.81;5006278;28;20041;-78
2021/12/17 01:18:10;;;;;;;30.10;15.32;;;;;;;5.64;94.36;102710.66;5003441;28;20038;-78
2021/12/17 01:23:58;;;;;;;30.45;14.65;;;;;;;5.57;94.08;102707.66;5000188;28;20034;-77
2021/12/17 01:35:43;;;;;;;29.10;14.98;;;;;;;5.45;94.43;102705.34;4983789;28;20057;-77
2021/12/17 01:43:27;;;;;;;29.58;14.32;;;;;;;5.44;93.49;102696.56;4986610;28;20045;-77
2021/12/17 01:45:53;;;;;;;28.88;14.55;;;;;;;5.37;94.06;102698.81;5000658;28;20040;-77
2021/12/17 01:48:25;;;;;;;29.27;14.20;;;;;;;5.32;94.03;102700.31;5002251;28;20109;-77
2021/12/17 01:56:53;;;;;;;30.25;15.55;;;;;;;5.36;94.11;102713.63;4994905;28;20034;-77
2021/12/17 01:59:37;;;;;;;29.77;15.15;;;;;;;5.36;94.26;102707.50;5003021;28;20447;-77
2021/12/17 02:02:05;;;;;;;32.22;15.93;;;;;;;5.36;93.87;102713.63;4985150;28;20080;-77
2021/12/17 02:04:32;;;;;;;31.33;15.52;;;;;;;5.33;94.46;102709.97;4985022;28;20120;-77
2021/12/17 02:06:59;;;;;;;34.33;15.30;;;;;;;5.28;93.99;102713.25;4984701;28;20037;-77
2021/12/17 02:12:18;;;;;;;36.35;16.40;;;;;;;5.33;94.12;102712.59;4984396;28;20060;-77
2021/12/17 02:20:28;;;;;;;37.42;17.27;;;;;;;5.22;94.11;102720.81;4999393;28;20042;-77
2021/12/17 02:23:21;;;;;;;34.03;16.52;;;;;;;5.27;94.16;102711.47;4968146;28;20030;-78
2021/12/17 02:28:47;;;;;;;39.10;16.52;;;;;;;5.27;93.55;102703.59;4983371;28;20054;-77
2021/12/17 02:33:46;;;;;;;40.72;18.60;;;;;;;5.29;94.09;102693.19;4985398;28;20140;-78
2021/12/17 02:36:16;;;;;;;34.40;16.77;;;;;;;5.38;93.74;102691.03;5007280;28;20117;-78
2021/12/17 02:38:41;;;;;;;38.05;17.98;;;;;;;5.36;93.72;102697.03;4993405;28;20033;-78
2021/12/17 02:47:05;;;;;;;36.35;16.77;;;;;;;5.38;93.31;102692.78;5002917;28;20030;-78
2021/12/17 02:49:31;;;;;;;38.95;18.80;;;;;;;5.39;93.20;102691.94;4984384;28;20085;-77
2021/12/17 02:51:58;;;;;;;34.88;17.77;;;;;;;5.40;93.06;102685.91;5002151;28;20038;-77
2021/12/17 02:54:24;;;;;;;37.42;17.83;;;;;;;5.40;93.13;102699.00;5001274;28;20034;-77
2021/12/17 02:56:50;;;;;;;39.03;19.42;;;;;;;5.41;93.43;102688.56;4985018;28;20120;-77
2021/12/17 02:59:15;;;;;;;34.17;17.83;;;;;;;5.40;93.02;102684.16;5000894;28;20044;-77
2021/12/17 03:01:45;;;;;;;32.15;17.17;;;;;;;5.40;93.10;102688.50;5003930;28;20116;-77
2021/12/17 03:04:11;;;;;;;36.97;19.20;;;;;;;5.39;93.57;102690.22;5012393;28;20042;-77
2021/12/17 03:06:37;;;;;;;41.40;20.58;;;;;;;5.40;92.68;102699.00;5005235;28;20555;-77
2021/12/17 03:09:04;;;;;;;38.92;19.85;;;;;;;5.38;92.81;102700.63;5007140;28;20038;-77
2021/12/17 03:11:29;;;;;;;35.80;19.27;;;;;;;5.32;93.12;102705.53;4998712;28;20038;-77
2021/12/17 03:13:55;;;;;;;38.15;17.42;;;;;;;5.33;93.31;102713.47;5002053;28;20049;-77
2021/12/17 03:16:33;;;;;;;41.30;19.58;;;;;;;5.36;93.25;102712.75;5000215;28;20038;-77
2021/12/17 03:24:08;;;;;;;46.60;21.20;;;;;;;5.39;93.42;102707.66;4984462;28;20084;-77
2021/12/17 03:26:33;;;;;;;39.83;20.48;;;;;;;5.40;93.01;102709.47;5009528;28;20041;-77
2021/12/17 03:29:02;;;;;;;44.05;21.70;;;;;;;5.37;93.06;102710.22;5003425;28;20377;-77
2021/12/17 03:31:29;;;;;;;35.15;18.35;;;;;;;5.37;93.06;102709.28;4984024;28;20026;-77
2021/12/17 03:34:11;;;;;;;36.85;18.35;;;;;;;5.35;93.21;102700.47;5000598;28;20080;-77
2021/12/17 03:36:36;;;;;;;40.53;20.23;;;;;;;5.38;92.93;102705.88;5002552;28;20040;-77
2021/12/17 03:39:02;;;;;;;41.97;19.85;;;;;;;5.35;93.17;102700.47;4999222;28;20418;-77
2021/12/17 03:41:36;;;;;;;38.53;20.52;;;;;;;5.44;93.36;102708.78;5001386;28;20528;-77
2021/12/17 03:44:05;;;;;;;43.70;20.55;;;;;;;5.43;93.27;102712.22;4986712;28;20033;-77
2021/12/17 03:47:04;;;;;;;43.47;19.70;;;;;;;5.41;92.73;102706.00;5003123;28;20034;-78
2021/12/17 03:49:48;;;;;;;42.40;21.17;;;;;;;5.37;92.66;102710.22;5005223;28;20030;-77
2021/12/17 03:52:16;;;;;;;37.58;19.35;;;;;;;5.38;92.81;102703.25;4988989;28;20045;-77
2021/12/17 03:54:42;;;;;;;37.40;18.95;;;;;;;5.41;92.06;102700.78;4995259;28;20120;-77
2021/12/17 03:57:12;;;;;;;39.35;17.67;;;;;;;5.41;91.91;102706.00;4987628;28;20114;-77
2021/12/17 03:59:42;;;;;;;34.80;17.10;;;;;;;5.38;92.02;102705.88;5004243;28;20030;-77
2021/12/17 04:02:08;;;;;;;38.83;17.92;;;;;;;5.34;92.23;102707.41;5002072;28;20030;-77
2021/12/17 04:04:34;;;;;;;31.52;16.45;;;;;;;5.40;92.36;102699.00;4993151;28;20452;-76
2021/12/17 04:07:22;;;;;;;36.20;18.08;;;;;;;5.35;92.13;102697.88;5003276;28;20047;-77
2021/12/17 04:10:11;;;;;;;36.45;17.90;;;;;;;5.32;92.75;102693.38;4986035;28;20125;-76
2021/12/17 04:12:55;;;;;;;33.35;15.65;;;;;;;5.35;91.63;102685.66;4989730;28;20507;-77
2021/12/17 04:15:35;;;;;;;33.85;16.25;;;;;;;5.33;91.47;102686.41;5002050;28;20038;-77
2021/12/17 04:18:07;;;;;;;35.83;16.05;;;;;;;5.32;90.83;102693.38;5006505;28;20030;-77
2021/12/17 04:20:34;;;;;;;34.95;17.77;;;;;;;5.36;91.48;102697.03;5002191;28;20053;-77
2021/12/17 04:23:00;;;;;;;32.20;18.00;;;;;;;5.34;91.88;102693.44;5005391;28;20056;-77
2021/12/17 04:25:25;;;;;;;34.20;17.08;;;;;;;5.33;91.65;102695.16;5001860;28;20496;-77
2021/12/17 04:27:51;;;;;;;35.75;16.55;;;;;;;5.36;91.96;102694.41;5003074;28;20042;-77
2021/12/17 04:30:17;;;;;;;42.00;18.92;;;;;;;5.40;91.80;102689.41;5002866;28;20064;-77
2021/12/17 04:32:43;;;;;;;30.50;15.98;;;;;;;5.41;91.23;102687.69;5003424;28;20114;-77
2021/12/17 04:35:09;;;;;;;33.30;14.88;;;;;;;5.40;91.15;102693.75;5002361;28;20576;-77
2021/12/17 04:37:41;;;;;;;26.85;13.60;;;;;;;5.37;90.98;102680.47;4975345;28;20060;-77
2021/12/17 04:40:07;;;;;;;30.40;13.40;;;;;;;5.41;90.50;102690.28;5008719;28;20034;-77
2021/12/17 04:43:10;;;;;;;28.75;13.68;;;;;;;5.27;90.74;102693.13;5004210;28;20635;-77
2021/12/17 04:45:42;;;;;;;;;;;;;;;5.18;90.94;102694.38;4993484;28;20044;-78
2021/12/17 04:59:22;;;;;;;33.72;13.82;;;;;;;5.20;91.73;102685.78;4985884;28;20069;-76
2021/12/17 05:01:49;;;;;;;26.00;13.13;;;;;;;5.23;92.22;102685.94;5003597;28;20062;-77
2021/12/17 05:04:15;;;;;;;27.65;13.70;;;;;;;5.26;91.23;102685.19;5003171;28;20068;-77
2021/12/17 05:06:41;;;;;;;32.10;14.38;;;;;;;5.25;91.92;102689.53;5003730;28;20033;-77
2021/12/17 05:09:15;;;;;;;29.73;14.27;;;;;;;5.28;91.32;102689.69;5003497;28;20485;-77
2021/12/17 05:22:09;;;;;;;28.17;14.65;;;;;;;5.36;90.93;102691.78;5009062;28;20086;-78
2021/12/17 05:24:35;;;;;;;30.92;14.57;;;;;;;5.32;90.24;102685.50;5006095;28;20030;-78
2021/12/17 05:27:00;;;;;;;30.48;15.23;;;;;;;5.35;90.59;102687.38;5013176;28;20036;-78
2021/12/17 05:29:29;;;;;;;27.58;12.32;;;;;;;5.40;90.28;102683.28;4996540;28;20520;-79
2021/12/17 05:31:54;;;;;;;23.20;12.77;;;;;;;5.43;90.75;102686.94;5016723;28;20117;-79
2021/12/17 05:34:21;;;;;;;25.88;12.35;;;;;;;5.50;89.61;102688.13;5012777;28;20376;-79
2021/12/17 05:36:51;;;;;;;27.10;13.88;;;;;;;5.48;89.32;102689.78;5015261;28;20069;-78
2021/12/17 05:39:21;;;;;;;27.92;12.43;;;;;;;5.41;89.55;102691.19;4999809;28;20045;-78
2021/12/17 05:41:47;;;;;;;27.52;12.45;;;;;;;5.40;89.60;102696.38;5011098;28;20034;-78
2021/12/17 05:44:33;;;;;;;30.23;13.13;;;;;;;5.44;89.01;102706.16;5013740;28;20546;-78
2021/12/17 05:46:59;;;;;;;26.77;12.48;;;;;;;5.39;89.01;102703.31;5014404;28;20037;-78
2021/12/17 05:49:28;;;;;;;21.95;11.15;;;;;;;5.42;88.77;102707.78;4981852;28;20030;-77
2021/12/17 05:51:56;;;;;;;24.67;12.55;;;;;;;5.45;89.09;102715.84;5007699;28;20033;-78
2021/12/17 05:54:23;;;;;;;26.15;12.50;;;;;;;5.42;88.58;102718.28;4995901;28;20087;-77
2021/12/17 05:56:50;;;;;;;26.27;11.43;;;;;;;5.48;88.48;102718.59;5010782;28;20037;-78
2021/12/17 05:59:15;;;;;;;28.55;12.35;;;;;;;5.49;87.32;102720.38;4995864;28;20038;-79
2021/12/17 06:01:40;;;;;;;28.23;11.20;;;;;;;5.38;87.65;102711.09;5001368;28;20033;-79
2021/12/17 06:04:06;;;;;;;22.30;11.15;;;;;;;5.37;87.98;102704.03;4997749;28;20030;-79
2021/12/17 06:06:47;;;;;;;25.50;12.00;;;;;;;5.42;88.37;102708.72;4998978;28;20128;-79
2021/12/17 06:09:13;;;;;;;29.60;13.35;;;;;;;5.45;88.32;102710.59;4988589;28;20038;-79
2021/12/17 06:11:39;;;;;;;20.98;10.82;;;;;;;5.44;87.51;102709.66;4995044;28;20068;-79
2021/12/17 06:14:06;;;;;;;23.48;10.50;;;;;;;5.40;86.63;102709.47;5012397;28;20069;-79
2021/12/17 06:16:35;;;;;;;24.83;11.40;;;;;;;5.40;87.49;102709.47;5004389;28;20034;-79
2021/12/17 06:19:06;;;;;;;28.50;11.43;;;;;;;5.42;87.75;102715.66;5009055;28;20034;-79
2021/12/17 06:21:31;;;;;;;26.05;11.70;;;;;;;5.47;87.22;102711.53;4992301;28;20030;-79
2021/12/17 06:23:57;;;;;;;28.23;12.38;;;;;;;5.42;87.81;102707.78;4989366;28;20026;-79
2021/12/17 06:26:23;;;;;;;22.02;10.85;;;;;;;5.45;87.62;102728.94;5011814;28;20041;-79
2021/12/17 06:28:51;;;;;;;27.98;12.27;;;;;;;5.41;87.15;102711.25;4990723;28;20030;-78
2021/12/17 06:31:19;;;;;;;20.30;10.90;;;;;;;5.38;86.97;102712.00;4998585;28;20042;-79
2021/12/17 06:33:45;;;;;;;23.08;10.55;;;;;;;5.41;86.52;102713.88;5009873;28;20034;-78
2021/12/17 06:36:10;;;;;;;20.77;9.82;;;;;;;5.36;86.80;102713.63;5010331;28;20070;-79
2021/12/17 06:38:36;;;;;;;29.88;12.98;;;;;;;5.34;87.55;102709.13;5008228;28;20029;-78
2021/12/17 06:41:03;;;;;;;24.85;11.65;;;;;;;5.36;87.81;102718.88;5006263;28;20037;-78
2021/12/17 06:43:36;;;;;;;26.25;11.48;;;;;;;5.26;87.66;102712.25;4992316;28;20037;-78
2021/12/17 06:46:19;;;;;;;24.92;11.30;;;;;;;5.27;87.82;102714.06;4998728;28;20034;-79
2021/12/17 06:48:47;;;;;;;24.50;10.88;;;;;;;5.23;87.69;102701.63;5013026;28;20045;-79
2021/12/17 07:00:12;;;;;;;30.98;13.48;;;;;;;5.23;88.54;102703.38;5007427;28;20038;-79
2021/12/17 07:10:03;;;;;;;30.58;12.13;;;;;;;5.11;88.28;102700.13;5007146;28;20397;-79
2021/12/17 07:20:59;;;;;;;35.75;16.38;;;;;;;4.99;90.60;102687.31;4991873;28;20030;-78
2021/12/17 07:23:36;;;;;;;35.05;17.67;;;;;;;4.95;91.69;102715.06;5007256;28;20501;-78
2021/12/17 07:34:03;;;;;;;38.90;18.90;;;;;;;4.82;92.68;102703.06;5005351;28;20053;-78
2021/12/17 07:39:44;;;;;;;33.83;15.48;;;;;;;4.74;92.45;102704.38;4924485;28;20048;-78
2021/12/17 07:42:22;;;;;;;44.78;18.73;;;;;;;4.73;92.63;102718.25;5005084;28;20030;-78
2021/12/17 07:45:04;;;;;;;;;;;;;;;4.77;92.03;102711.50;5005341;28;20398;-79
2021/12/17 07:47:50;;;;;;;35.28;15.82;;;;;;;4.78;92.04;102716.78;5015936;28;19921;-79
2021/12/17 07:50:30;;;;;;;35.50;16.10;;;;;;;4.78;92.23;102723.75;5006625;28;20492;-78
2021/12/17 07:53:19;;;;;;;33.33;15.80;;;;;;;4.76;92.09;102730.59;5001275;28;20042;-78
2021/12/17 07:55:55;;;;;;;32.67;16.08;;;;;;;4.73;92.64;102723.50;5004878;28;20065;-78
2021/12/17 07:58:21;;;;;;;29.02;14.45;;;;;;;4.81;92.39;102722.16;4990664;28;20401;-78
2021/12/17 08:00:47;;;;;;;34.72;16.58;;;;;;;4.82;92.36;102731.84;5007673;28;20071;-78
2021/12/17 08:03:14;;;;;;;32.30;14.98;;;;;;;4.84;92.44;102737.13;5002616;28;20129;-79
2021/12/17 08:05:45;;;;;;;32.75;15.25;;;;;;;4.84;91.70;102737.13;5014783;28;20049;-79
2021/12/17 08:08:12;;;;;;;32.30;14.93;;;;;;;4.87;92.07;102733.78;5013999;28;20030;-78
2021/12/17 08:10:38;;;;;;;33.60;15.00;;;;;;;4.89;91.95;102719.97;5009040;28;20093;-78
2021/12/17 08:13:06;;;;;;;30.80;14.38;;;;;;;4.96;92.07;102715.94;5005113;28;20041;-79
2021/12/17 08:15:37;;;;;;;28.10;14.02;;;;;;;5.04;91.51;102714.63;5000253;28;20403;-79
2021/12/17 08:18:20;;;;;;;34.28;15.20;;;;;;;5.05;91.20;102724.25;4994690;28;20061;-78
2021/12/17 08:28:39;;;;;;;29.15;13.93;;;;;;;5.02;90.89;102690.97;4998759;28;20099;-79
2021/12/17 08:31:05;;;;;;;29.10;13.32;;;;;;;5.16;91.00;102710.03;5010670;28;20038;-78
2021/12/17 08:33:31;;;;;;;28.95;14.15;;;;;;;5.23;91.12;102701.63;5011939;28;20112;-79
2021/12/17 08:35:59;;;;;;;30.17;13.90;;;;;;;5.22;90.68;102705.09;4982640;28;20169;-78
2021/12/17 08:38:31;;;;;;;22.33;13.20;;;;;;;5.27;90.37;102703.59;5009580;28;20031;-79
2021/12/17 08:41:00;;;;;;;26.60;13.15;;;;;;;5.24;90.79;102710.41;5011213;28;20026;-78
2021/12/17 08:43:26;;;;;;;29.95;13.38;;;;;;;5.27;90.67;102710.56;4992290;28;20123;-79
2021/12/17 08:45:54;;;;;;;32.83;13.57;;;;;;;5.33;90.25;102712.59;5007278;28;20030;-79
2021/12/17 08:48:42;;;;;;;32.30;14.27;;;;;;;5.40;90.17;102715.59;5011079;28;20046;-78
2021/12/17 08:51:32;;;;;;;30.35;13.57;;;;;;;5.37;90.01;102725.91;5013983;28;20033;-79
2021/12/17 08:53:57;;;;;;;26.77;12.73;;;;;;;5.42;89.75;102720.88;5000722;28;20116;-79
2021/12/17 08:56:31;;;;;;;33.55;15.82;;;;;;;5.51;89.51;102726.59;5004382;28;20489;-78
2021/12/17 08:58:59;;;;;;;34.90;17.90;;;;;;;5.48;89.76;102726.47;5009370;28;20645;-78
2021/12/17 09:01:29;;;;;;;33.13;16.40;;;;;;;5.45;90.38;102723.69;4996198;28;20582;-79
2021/12/17 09:03:55;;;;;;;36.20;17.17;;;;;;;5.52;89.53;102725.75;5013961;28;20038;-79
2021/12/17 09:06:29;;;;;;;29.67;15.35;;;;;;;5.58;89.19;102726.09;4988904;28;20060;-78
2021/12/17 09:08:56;;;;;;;30.90;15.07;;;;;;;5.63;88.69;102732.47;5011103;28;20045;-79
2021/12/17 09:11:26;;;;;;;30.73;15.20;;;;;;;5.71;89.46;102738.97;5013542;28;20033;-79
2021/12/17 09:13:59;;;;;;;29.77;15.75;;;;;;;5.81;89.11;102742.03;4993738;28;20034;-78
2021/12/17 09:16:34;;;;;;;30.35;17.13;;;;;;;5.86;88.57;102735.28;4994132;28;20058;-79
2021/12/17 09:18:59;;;;;;;33.70;16.77;;;;;;;5.88;88.16;102728.41;5006947;28;20034;-78
2021/12/17 09:21:39;;;;;;;33.47;15.25;;;;;;;5.90;87.60;102734.63;5009110;28;20087;-78
2021/12/17 09:24:09;;;;;;;34.63;15.55;;;;;;;5.93;88.13;102722.59;5008024;28;20038;-79
2021/12/17 09:26:54;;;;;;;34.13;15.32;;;;;;;5.93;87.29;102727.81;5008043;28;20061;-78
2021/12/17 09:29:25;;;;;;;44.33;20.60;;;;;;;5.92;88.32;102739.13;4991160;28;20102;-78
2021/12/17 09:31:50;;;;;;;27.77;13.90;;;;;;;5.97;87.68;102743.69;5013718;28;20408;-79
2021/12/17 09:34:16;;;;;;;26.77;13.27;;;;;;;6.00;87.39;102746.44;5016833;28;20034;-78
2021/12/17 09:36:41;;;;;;;27.15;13.10;;;;;;;6.10;86.88;102749.63;5016633;28;20033;-78
2021/12/17 09:39:07;;;;;;;29.30;14.00;;;;;;;6.04;86.78;102738.81;5013285;28;20420;-79
2021/12/17 09:41:32;;;;;;;24.58;12.88;;;;;;;6.13;87.00;102751.44;5014873;28;20080;-78
2021/12/17 09:43:57;;;;;;;28.77;12.23;;;;;;;6.14;87.22;102750.66;5015753;28;20038;-78
2021/12/17 09:46:23;;;;;;;26.00;12.88;;;;;;;6.15;86.27;102753.31;5016669;28;20037;-78
2021/12/17 09:48:49;;;;;;;28.67;14.27;;;;;;;6.19;86.49;102743.00;5015525;28;20040;-79
2021/12/17 09:51:17;;;;;;;22.95;12.27;;;;;;;6.22;86.52;102736.16;5011301;28;20174;-78
2021/12/17 09:53:43;;;;;;;26.48;12.18;;;;;;;6.19;86.21;102733.41;5011333;28;20091;-78
2021/12/17 09:56:08;;;;;;;28.20;13.38;;;;;;;6.19;86.65;102735.16;5007148;28;20441;-78
2021/12/17 09:58:34;;;;;;;32.17;11.63;;;;;;;6.18;85.90;102741.19;5007536;28;20113;-78
2021/12/17 10:00:59;;;;;;;26.40;11.77;;;;;;;6.13;86.65;102740.97;5009003;28;20062;-78
2021/12/17 10:03:26;;;;;;;28.15;12.02;;;;;;;6.16;86.34;102738.53;5009178;28;20048;-79
2021/12/17 10:05:52;;;;;;;25.17;11.45;;;;;;;6.13;86.02;102734.03;5009551;28;20057;-78
2021/12/17 10:08:21;;;;;;;21.88;10.85;;;;;;;6.21;85.96;102733.47;5023745;28;20034;-78
2021/12/17 10:10:57;;;;;;;26.85;12.48;;;;;;;6.13;86.37;102730.47;4994952;28;20034;-78
2021/12/17 10:13:25;;;;;;;26.95;11.32;;;;;;;6.17;86.40;102729.81;4993164;28;20523;-78
2021/12/17 10:15:57;;;;;;;24.38;11.70;;;;;;;6.16;86.04;102743.75;5007030;28;20098;-78
2021/12/17 10:18:36;;;;;;;32.30;13.50;;;;;;;6.23;86.69;102747.56;5013020;28;20504;-78
2021/12/17 10:21:04;;;;;;;20.80;10.90;;;;;;;6.28;86.56;102736.44;5008054;28;20117;-78
2021/12/17 10:23:31;;;;;;;20.60;10.52;;;;;;;6.34;86.04;102743.69;4991186;28;20052;-79
2021/12/17 10:25:56;;;;;;;18.27;9.80;;;;;;;6.34;85.35;102738.44;5008144;28;20041;-79
2021/12/17 10:28:22;;;;;;;18.90;9.48;;;;;;;6.33;85.25;102736.66;5009955;28;20103;-78
2021/12/17 10:30:50;;;;;;;30.55;11.00;;;;;;;6.28;85.88;102739.06;4986305;28;20408;-78
2021/12/17 10:33:18;;;;;;;20.30;9.82;;;;;;;6.33;84.67;102742.81;5007462;28;20053;-79
2021/12/17 10:35:47;;;;;;;20.25;10.13;;;;;;;6.35;85.61;102741.16;4993137;28;20808;-79
2021/12/17 10:38:16;;;;;;;22.23;9.57;;;;;;;6.37;84.80;102741.25;5006271;28;20102;-78
2021/12/17 10:40:55;;;;;;;18.02;9.40;;;;;;;6.41;84.38;102744.91;4996386;28;20033;-78
2021/12/17 10:43:31;;;;;;;22.20;9.80;;;;;;;6.42;85.04;102741.44;5008438;28;20398;-78
2021/12/17 10:46:04;;;;;;;21.90;8.95;;;;;;;6.50;84.49;102743.59;5005710;28;20062;-78
2021/12/17 10:48:35;;;;;;;19.23;9.07;;;;;;;6.52;84.13;102752.44;5005199;28;20121;-78
2021/12/17 10:51:08;;;;;;;16.67;8.98;;;;;;;6.54;84.52;102744.63;5006846;28;20043;-78
2021/12/17 10:53:34;;;;;;;19.75;9.23;;;;;;;6.60;84.00;102744.91;5008976;28;20118;-78
2021/12/17 10:55:59;;;;;;;24.35;9.10;;;;;;;6.63;83.30;102742.44;5014337;28;20081;-78
2021/12/17 10:58:26;;;;;;;21.40;9.73;;;;;;;6.63;83.54;102752.00;5016451;28;20054;-78
2021/12/17 11:01:02;;;;;;;21.50;9.00;;;;;;;6.65;83.53;102750.38;5016085;28;20018;-79
2021/12/17 11:03:29;;;;;;;20.92;8.57;;;;;;;6.64;83.28;102751.19;5007353;28;20061;-78
2021/12/17 11:05:55;;;;;;;21.38;9.68;;;;;;;6.61;83.34;102765.09;5009514;28;20030;-77
2021/12/17 11:08:31;;;;;;;21.77;9.68;;;;;;;6.71;82.31;102756.81;5007947;28;20448;-77
2021/12/17 11:11:06;;;;;;;25.90;8.98;;;;;;;6.63;82.94;102752.00;5003749;28;20466;-78
2021/12/17 11:13:31;;;;;;;16.48;8.38;;;;;;;6.69;83.10;102752.31;5008574;28;20041;-77
2021/12/17 11:15:57;;;;;;;19.20;8.50;;;;;;;6.79;83.60;102754.53;4988075;28;20030;-77
2021/12/17 11:18:26;;;;;;;18.65;8.85;;;;;;;6.78;83.53;102755.34;5003554;28;20096;-77
2021/12/17 11:20:54;;;;;;;17.70;8.40;;;;;;;6.77;83.19;102756.19;5003340;28;20400;-77
2021/12/17 11:23:22;;;;;;;20.42;9.32;;;;;;;6.67;83.10;102749.59;5004008;28;20489;-78
2021/12/17 11:25:49;;;;;;;17.42;8.88;;;;;;;6.77;83.00;102740.44;5002950;28;20556;-76
2021/12/17 11:28:15;;;;;;;20.60;9.55;;;;;;;6.80;83.25;102753.69;5001106;28;20117;-76
2021/12/17 11:30:43;;;;;;;16.50;8.95;;;;;;;6.80;82.81;102744.06;4984728;28;20072;-77
2021/12/17 11:33:10;;;;;;;22.00;10.30;;;;;;;6.73;83.29;102727.97;5000069;28;20038;-77
2021/12/17 11:35:38;;;;;;;20.50;9.35;;;;;;;6.73;83.34;102730.59;4988507;28;20469;-77
2021/12/17 11:38:13;;;;;;;18.50;9.60;;;;;;;6.76;82.90;102728.16;5002120;28;20459;-77
2021/12/17 11:41:18;;;;;;;24.35;11.30;;;;;;;6.71;83.60;102734.91;5002025;28;20038;-77
2021/12/17 11:43:51;;;;;;;18.88;10.02;;;;;;;6.70;83.25;102723.50;5002412;28;20444;-77
2021/12/17 11:46:23;;;;;;;21.25;11.27;;;;;;;6.66;83.03;102736.44;4982038;28;20058;-77
2021/12/17 11:48:57;;;;;;;25.05;10.75;;;;;;;6.65;83.22;102729.38;4998621;28;20043;-77
2021/12/17 11:51:26;;;;;;;22.85;10.45;;;;;;;6.62;83.37;102735.38;5005254;28;20084;-77
2021/12/17 11:53:56;;;;;;;21.33;10.27;;;;;;;6.66;83.38;102731.19;5008510;28;20109;-76
2021/12/17 11:56:43;;;;;;;22.48;10.70;;;;;;;6.62;83.41;102734.47;4999098;28;20039;-76
2021/12/17 11:59:29;;;;;;;23.70;10.93;;;;;;;6.65;83.05;102718.88;4999398;28;20489;-76
2021/12/17 12:02:17;;;;;;;21.08;10.05;;;;;;;6.73;83.10;102718.41;5002212;28;20636;-77
2021/12/17 12:04:58;;;;;;;19.65;10.00;;;;;;;6.68;83.74;102717.31;5002044;28;20038;-77
2021/12/17 12:07:23;;;;;;;20.33;9.95;;;;;;;6.67;83.88;102717.22;5005762;28;20114;-77
2021/12/17 12:10:35;;;;;;;21.73;10.50;;;;;;;6.72;83.63;102727.09;5006604;28;20042;-77
2021/12/17 12:13:01;;;;;;;21.00;9.95;;;;;;;6.74;83.33;102728.06;4924030;29;20051;-77
2021/12/17 12:15:31;;;;;;;20.23;10.23;;;;;;;6.75;83.51;102721.09;4909367;29;20199;-77
2021/12/17 12:18:13;;;;;;;22.08;9.27;;;;;;;6.79;83.39;102725.66;4961718;28;20092;-77
2021/12/17 12:20:53;;;;;;;23.35;9.73;;;;;;;6.74;84.20;102728.06;5011649;28;20037;-77
2021/12/17 12:23:27;;;;;;;20.92;10.02;;;;;;;6.75;83.75;102731.59;5014073;28;20034;-77
2021/12/17 12:26:01;;;;;;;19.95;8.65;;;;;;;6.72;83.86;102726.19;5003359;28;20038;-77
2021/12/17 12:28:45;;;;;;;23.63;9.52;;;;;;;6.72;83.82;102736.69;5005613;28;20061;-77
2021/12/17 12:31:16;;;;;;;19.27;9.10;;;;;;;6.69;84.11;102733.94;5006431;28;20045;-77
2021/12/17 12:34:05;;;;;;;20.70;9.35;;;;;;;6.68;84.68;102734.75;5003170;28;20492;-77
2021/12/17 12:36:52;;;;;;;20.75;9.80;;;;;;;6.75;84.32;102739.44;5009366;28;20091;-77
2021/12/17 12:39:23;;;;;;;15.30;9.02;;;;;;;6.72;84.47;102736.69;5005869;28;20523;-76
2021/12/17 12:42:22;;;;;;;17.92;9.35;;;;;;;6.75;84.45;102728.97;5005587;28;20045;-77
2021/12/17 12:44:47;;;;;;;19.52;8.77;;;;;;;6.77;83.88;102729.94;5000901;28;20409;-77
2021/12/17 12:47:31;;;;;;;22.85;9.07;;;;;;;6.79;84.92;102725.66;5005943;28;20049;-77
2021/12/17 12:50:00;;;;;;;20.58;9.30;;;;;;;6.82;84.35;102720.53;4985961;28;20038;-77
2021/12/17 12:52:31;;;;;;;21.17;9.23;;;;;;;6.86;84.40;102722.44;5003265;28;20052;-77
2021/12/17 12:55:18;;;;;;;24.70;8.13;;;;;;;6.93;84.47;102715.75;5004811;28;20073;-77
2021/12/17 12:58:05;;;;;;;19.48;8.60;;;;;;;6.91;84.16;102713.03;5012529;28;20092;-77
2021/12/17 13:00:33;;;;;;;18.38;9.35;;;;;;;6.90;84.41;102707.75;5002384;28;20064;-77
2021/12/17 13:03:18;;;;;;;20.80;8.52;;;;;;;6.83;84.24;102698.69;5005526;28;20048;-77
2021/12/17 13:05:45;;;;;;;16.83;9.13;;;;;;;6.77;85.47;102704.56;5011365;28;20092;-77
2021/12/17 13:08:14;;;;;;;21.65;8.60;;;;;;;6.85;84.85;102706.66;5003298;28;20073;-77
2021/12/17 13:10:49;;;;;;;18.75;9.05;;;;;;;6.85;85.12;102701.41;5004693;28;20038;-77
2021/12/17 13:13:27;;;;;;;18.73;8.93;;;;;;;6.76;84.96;102705.41;5001271;28;20065;-77
2021/12/17 13:23:50;;;;;;;19.95;9.27;;;;;;;6.83;85.04;102682.94;5002592;28;20042;-77
2021/12/17 13:26:17;;;;;;;17.77;8.02;;;;;;;6.80;85.32;102698.56;4986630;28;20034;-77
2021/12/17 13:28:50;;;;;;;20.30;8.77;;;;;;;6.75;85.32;102705.34;5002724;28;20038;-77
2021/12/17 13:31:41;;;;;;;21.48;9.10;;;;;;;6.72;85.27;102711.34;5003778;28;20041;-77
2021/12/17 13:34:14;;;;;;;19.73;9.02;;;;;;;6.77;85.29;102708.94;5002301;28;20138;-77
2021/12/17 13:36:54;;;;;;;19.48;9.60;;;;;;;6.73;85.68;102710.53;4988268;28;20361;-76
2021/12/17 13:39:21;;;;;;;30.65;9.57;;;;;;;6.76;86.05;102702.78;5005656;28;20081;-77
2021/12/17 13:41:47;;;;;;;22.92;11.40;;;;;;;6.80;85.96;102699.44;4996327;28;20034;-77
2021/12/17 13:44:39;;;;;;;20.67;9.27;;;;;;;6.80;85.26;102709.06;4986413;28;20022;-77
2021/12/17 13:47:13;;;;;;;17.75;9.05;;;;;;;6.77;85.86;102694.06;5006970;28;20117;-77
2021/12/17 13:49:48;;;;;;;23.08;8.82;;;;;;;6.78;85.59;102705.47;5007403;28;20042;-77
2021/12/17 13:52:14;;;;;;;21.27;8.65;;;;;;;6.75;86.03;102702.72;5006134;28;20048;-77
2021/12/17 13:54:39;;;;;;;22.73;9.65;;;;;;;6.68;85.91;102706.81;4992382;28;20038;-76
2021/12/17 13:57:06;;;;;;;19.35;8.98;;;;;;;6.73;86.22;102707.00;5008441;28;20404;-76
2021/12/17 13:59:36;;;;;;;21.73;8.90;;;;;;;6.73;85.83;102712.25;5011311;28;20046;-77
2021/12/17 14:02:27;;;;;;;19.45;9.50;;;;;;;6.79;85.53;102715.16;5005710;28;20041;-78
2021/12/17 14:05:30;;;;;;;19.98;9.63;;;;;;;6.76;85.50;102718.53;5001972;28;20050;-76
2021/12/17 14:08:00;;;;;;;18.75;8.73;;;;;;;6.79;85.93;102715.16;5004844;28;20046;-76
2021/12/17 14:10:32;;;;;;;21.45;9.43;;;;;;;6.77;85.57;102724.69;4985487;28;20057;-76
2021/12/17 14:12:58;;;;;;;19.23;9.27;;;;;;;6.75;85.67;102718.47;4999305;28;20238;-76
2021/12/17 14:15:31;;;;;;;20.38;9.55;;;;;;;6.77;85.66;102719.44;5002259;28;20030;-76